Argyle, Iowa
Current Conditions -  °F | °C
As of 9:55 AM on Friday 31 Oct 2014 (Local Time) from KEOK Reporting Station
Clear Clear  
Wind Chill: 25°   Ceiling: Unl
Heat Index: 36°   Visibility: 10mi
Dew Point: 21°   Wind: 18mph
Humidity: 56%   Direction: 360°N
Pressure: 30.36"   Gusts: 30mph
Location:  40.53°N, 91.57°W
Report Text: KEOK 311455Z AUTO 36016G26KT 10SM CLR 02/M06 A3036 RMK AO2
Loading
Personal Weather Stations






























Interactive Weather Map
Tropical Storm Tracking
New forecast layout! Learn more

10-Day Weather Forecast

Advertisements
Track Severe Weather on mobile